Alafaya, FL

7:22 PM EDT on October 20, 2014 (GMT -0400)
Space Coast Regional | Change Station
CLOSE
Current Station
Airport
Location: Titusville,
Elevation: 36 ft
Nearby Weather Stations

Elev 36 ft 28.51 °N, 80.80 °W | Updated 35 minutes ago

Partly Cloudy
Partly Cloudy
77 °F
Feels Like 77 °F
N
6
Wind Variable Wind from East

Today
High -- | Low -- °F
--% Chance of Precip.
Yesterday
High -- | Low -- °F
Precip. -- in
7:28 AM 6:50 PM
Waning Crescent, 8% visible
Pressure 29.96 in
Visibility 7.0 miles
Clouds Scattered Clouds 4000 ft
Dew Point 66 °F
Humidity 69%
Rainfall 0.00 in
Snow Depth Not available.
UV 0 out of 12
Pollen 5.60 out of 12
Ozone Good
PM2.5 Moderate
Flu Activity Local Activity
METAR KTIX 202247Z 08005KT 7SM SCT040 25/19 A2996

More Conditions Fewer Conditions

Pressure 29.96 in
Visibility 7.0 miles
Clouds Scattered Clouds 4000 ft
Dew Point 66 °F
Humidity 69%
Rainfall 0.00 in
Snow Depth Not available.
UV 0 out of 12
Pollen 5.60 out of 12
Ozone Good
PM2.5 Moderate
Flu Activity Local Activity
METAR KTIX 202247Z 08005KT 7SM SCT040 25/19 A2996

More Conditions Fewer Conditions

Nowcast | as of 6:36 PM EDT on October 20, 2014

A few brief showers will be possible into this evening across lake and western Orange counties along the inland moving East Coast sea breeze. Any showers that develop will move slowly toward the north and produce light rainfall amounts. Additional details...including graphics are available online at: http://www.Srh.NOAA.Gov/mlb/blog.Php

×

10-Day Weather Forecast

Almanac

Astronomy

Oct. 20, 2014 Rise Set
Actual Time 7:28 AM EDT 6:50 PM EDT
Civil Twilight 7:04 AM EDT 7:13 PM EDT
Nautical Twilight 6:37 AM EDT 7:41 PM EDT
Astronomical Twilight 6:09 AM EDT 8:08 PM EDT
Moon 4:30 AM EDT 4:59 PM EDT
Length of Visible Light 12h 09m
Length of Day
11h 21m
Tomorrow will be 1m 36s shorter.
Waning Crescent, 8% of the Moon is Illuminated
Today
Waning Crescent
Oct 23
New
Oct 30
First Quarter
Nov 6
Full
Nov 14
Last Quarter

Today's Extremes

State Highs State Lows

Community

WunderPhotos

Upload Photos

1,763,544 photos uploaded!

WunderBlogs® & News

By Dr. Jeff Masters
Director of Meteorology, Weather Underground
By Kari Strenfel
Meteorologist, Weather Underground
By Christopher C. Burt
Weather Historian, Weather Underground
October 20, 2014
October 20, 2014
October 20, 2014

Nearby

Air Quality

  Air Quality AQ Index Pollutant
Yesterday Good
PM2.5
Yesterday Good
OZONE
Current Moderate
PM2.5
Current Good
OZONE
Monday Good
OZONE
Tuesday Good
OZONE

Snow Depth

Station Depth Elevation
No new snow has been reported.

Earthquake Activity

City Distance Mag. Time & Date
No recent earthquake activity has been reported nearby.
Minimum magnitude displayed is 2.5.

Coastal Water Temperatures

Place Temperature
Trident Pier, FL 81.0 °F
Fort Myers, FL 84.9 °F
Lake Worth, FL 82.9 °F

Nearby Weather Stations